Time;durP1;ratioP1;P1;durP2;ratioP2;P2;SDS_P1;SDS_P2;PMS_P1;PMS_P2;Temp;Humidity;BMP_temperature;BMP_pressure;BME280_temperature;BME280_humidity;BME280_pressure;Samples;Min_cycle;Max_cycle;Signal;HPM_P1;HPM_P2
2023/06/24 00:01:22;;;;;;;6.37;4.30;;;19.50;99.90;;;;;;5051834;28;20218;-70
2023/06/24 00:03:48;;;;;;;6.33;4.70;;;19.60;99.90;;;;;;5051965;28;20159;-70
2023/06/24 00:06:18;;;;;;;5.27;4.47;;;19.40;99.90;;;;;;5052173;28;20765;-70
2023/06/24 00:08:47;;;;;;;5.23;4.73;;;19.30;99.90;;;;;;5052233;28;20541;-70
2023/06/24 00:11:13;;;;;;;5.43;4.90;;;19.10;99.90;;;;;;5055762;28;20447;-70
2023/06/24 00:13:40;;;;;;;5.10;4.60;;;19.10;99.90;;;;;;5038173;28;20404;-70
2023/06/24 00:16:06;;;;;;;4.93;4.43;;;19.10;99.90;;;;;;5056346;28;20547;-70
2023/06/24 00:18:32;;;;;;;4.00;3.70;;;19.20;99.90;;;;;;5031044;28;20986;-70
2023/06/24 00:20:58;;;;;;;5.87;4.83;;;19.10;99.90;;;;;;5036229;28;20895;-70
2023/06/24 00:23:24;;;;;;;5.03;4.63;;;19.10;99.90;;;;;;5018233;28;20487;-70
2023/06/24 00:25:51;;;;;;;5.10;4.70;;;19.00;99.90;;;;;;5018220;28;20539;-70
2023/06/24 00:28:17;;;;;;;5.03;4.53;;;18.80;99.90;;;;;;5035790;28;20418;-70
2023/06/24 00:30:42;;;;;;;5.43;4.90;;;18.80;99.90;;;;;;5036191;28;20489;-70
2023/06/24 00:33:11;;;;;;;5.10;4.60;;;18.80;99.90;;;;;;5035585;28;20167;-70
2023/06/24 00:35:37;;;;;;;5.60;4.70;;;18.80;99.90;;;;;;5035494;28;20298;-71
2023/06/24 00:38:03;;;;;;;5.07;4.60;;;18.80;99.90;;;;;;5036436;28;20516;-70
2023/06/24 00:40:29;;;;;;;4.93;4.53;;;18.70;99.90;;;;;;5038669;28;20607;-70
2023/06/24 00:42:55;;;;;;;5.73;4.03;;;18.70;99.90;;;;;;5035987;28;20414;-70
2023/06/24 00:45:21;;;;;;;5.70;5.20;;;18.50;99.90;;;;;;5036021;28;20250;-70
2023/06/24 00:47:48;;;;;;;5.43;4.90;;;18.50;99.90;;;;;;5040425;28;20441;-70
2023/06/24 00:50:15;;;;;;;4.80;4.40;;;18.50;99.90;;;;;;5055499;28;20408;-70
2023/06/24 00:52:43;;;;;;;8.53;5.70;;;18.50;99.90;;;;;;5056000;28;20405;-70
2023/06/24 00:55:12;;;;;;;5.20;4.70;;;18.30;99.90;;;;;;5055811;28;20428;-70
2023/06/24 00:57:39;;;;;;;5.30;4.80;;;18.40;99.90;;;;;;5055549;28;20421;-70
2023/06/24 01:00:23;;;;;;;5.43;4.90;;;18.40;99.90;;;;;;5055657;28;20974;-70
2023/06/24 01:02:50;;;;;;;5.47;4.97;;;18.30;99.90;;;;;;5056055;28;20382;-70
2023/06/24 01:05:16;;;;;;;4.83;4.53;;;18.30;99.90;;;;;;5055279;28;20402;-70
2023/06/24 01:07:42;;;;;;;4.83;4.43;;;18.20;99.90;;;;;;5055621;28;20440;-70
2023/06/24 01:10:12;;;;;;;5.67;5.03;;;18.20;99.90;;;;;;5055776;28;20174;-70
2023/06/24 01:12:40;;;;;;;5.93;4.77;;;18.20;99.90;;;;;;5055639;28;20405;-70
2023/06/24 01:15:08;;;;;;;4.80;4.27;;;18.20;99.90;;;;;;5055364;28;20408;-70
2023/06/24 01:18:02;;;;;;;7.60;6.10;;;18.10;99.90;;;;;;5058073;28;20962;-70
2023/06/24 01:20:50;;;;;;;4.90;4.40;;;17.90;99.90;;;;;;5072915;28;20448;-70
2023/06/24 01:23:35;;;;;;;5.47;4.97;;;17.90;99.90;;;;;;5056763;28;20396;-70
2023/06/24 01:26:23;;;;;;;6.20;5.40;;;18.00;99.90;;;;;;5075446;28;20387;-70
2023/06/24 01:29:33;;;;;;;5.53;5.03;;;18.00;99.90;;;;;;5075838;28;20400;-70
2023/06/24 01:32:29;;;;;;;6.07;5.47;;;17.90;99.90;;;;;;5075713;28;20380;-70
2023/06/24 01:35:02;;;;;;;5.57;4.83;;;17.90;99.90;;;;;;5048206;28;20786;-70
2023/06/24 01:37:51;;;;;;;6.63;5.93;;;17.80;99.90;;;;;;5056772;28;20468;-70
2023/06/24 01:40:26;;;;;;;6.00;5.50;;;17.90;99.90;;;;;;5075139;28;20432;-70
2023/06/24 01:42:53;;;;;;;4.77;4.37;;;18.00;99.90;;;;;;5075057;28;20432;-70
2023/06/24 01:45:24;;;;;;;6.27;5.67;;;18.10;99.90;;;;;;5074710;28;20407;-70
2023/06/24 01:48:01;;;;;;;6.77;6.17;;;18.10;99.90;;;;;;5073234;28;20478;-70
2023/06/24 01:50:29;;;;;;;6.70;6.07;;;18.10;99.90;;;;;;5056347;28;20490;-70
2023/06/24 01:52:56;;;;;;;5.60;5.10;;;18.00;99.90;;;;;;5053509;28;20497;-70
2023/06/24 01:55:24;;;;;;;5.77;5.27;;;17.90;99.90;;;;;;5054433;28;20433;-71
2023/06/24 01:57:51;;;;;;;6.17;5.67;;;18.00;99.90;;;;;;5054289;28;20421;-70
2023/06/24 02:00:17;;;;;;;6.40;5.80;;;17.90;99.90;;;;;;5054395;28;20448;-70
2023/06/24 02:02:44;;;;;;;6.03;5.53;;;17.90;99.90;;;;;;5054230;28;20934;-70
2023/06/24 02:05:11;;;;;;;5.50;5.00;;;17.80;99.90;;;;;;5053836;28;20462;-70
2023/06/24 02:07:38;;;;;;;6.90;6.20;;;17.80;99.90;;;;;;5036125;28;20421;-70
2023/06/24 02:10:07;;;;;;;6.10;5.50;;;17.80;99.90;;;;;;5050946;28;20404;-70
2023/06/24 02:12:33;;;;;;;6.53;5.87;;;17.80;99.90;;;;;;5053857;28;20409;-70
2023/06/24 02:15:00;;;;;;;6.20;5.70;;;17.80;99.90;;;;;;5054048;28;20466;-70
2023/06/24 02:17:29;;;;;;;5.90;5.40;;;17.90;99.90;;;;;;5054580;28;20187;-70
2023/06/24 02:19:55;;;;;;;6.00;5.43;;;17.90;99.90;;;;;;5073382;28;20440;-70
2023/06/24 02:22:22;;;;;;;7.23;6.63;;;18.00;99.90;;;;;;5073574;28;20400;-70
2023/06/24 02:24:50;;;;;;;6.00;5.40;;;17.90;99.90;;;;;;5055832;28;20557;-70
2023/06/24 02:27:16;;;;;;;6.53;5.93;;;17.90;99.90;;;;;;5073959;28;20451;-70
2023/06/24 02:29:43;;;;;;;7.00;6.40;;;18.00;99.90;;;;;;5073797;28;20405;-70
2023/06/24 02:32:09;;;;;;;6.57;5.97;;;17.90;99.90;;;;;;5073235;28;20905;-70
2023/06/24 02:34:35;;;;;;;6.97;6.27;;;17.70;99.90;;;;;;5073228;28;20400;-69
2023/06/24 02:37:01;;;;;;;5.40;4.97;;;17.60;99.90;;;;;;5073283;28;20422;-70
2023/06/24 02:39:26;;;;;;;6.90;6.23;;;17.70;99.90;;;;;;5073731;28;20166;-70
2023/06/24 02:41:52;;;;;;;6.00;5.40;;;17.80;99.90;;;;;;5073182;28;20190;-69
2023/06/24 02:44:17;;;;;;;6.80;6.20;;;17.70;99.90;;;;;;5073302;28;20166;-70
2023/06/24 02:46:45;;;;;;;5.73;5.23;;;17.70;99.90;;;;;;5053631;28;20205;-70
2023/06/24 02:49:13;;;;;;;8.57;6.17;;;17.70;99.90;;;;;;5049029;28;20259;-69
2023/06/24 02:51:39;;;;;;;6.63;5.97;;;17.70;99.90;;;;;;5073074;28;20406;-70
2023/06/24 02:54:06;;;;;;;7.33;6.67;;;17.70;99.90;;;;;;5073178;28;20906;-69
2023/06/24 02:56:33;;;;;;;7.10;5.97;;;17.60;99.90;;;;;;5055036;28;20751;-69
2023/06/24 02:58:58;;;;;;;8.33;6.20;;;17.60;99.90;;;;;;5073372;28;20412;-69
2023/06/24 03:01:25;;;;;;;7.80;7.10;;;17.60;99.90;;;;;;5073313;28;20521;-70
2023/06/24 03:03:55;;;;;;;6.67;5.90;;;17.60;99.90;;;;;;5073088;28;20166;-70
2023/06/24 03:06:22;;;;;;;7.90;6.07;;;17.50;99.90;;;;;;5073030;28;20762;-70
2023/06/24 03:08:49;;;;;;;7.40;6.70;;;17.50;99.90;;;;;;5072916;28;20911;-70
2023/06/24 03:11:15;;;;;;;6.97;6.33;;;17.50;99.90;;;;;;5072987;28;20407;-69
2023/06/24 03:13:41;;;;;;;6.70;6.10;;;17.50;99.90;;;;;;5072954;28;20737;-70
2023/06/24 03:16:12;;;;;;;7.07;6.47;;;17.50;99.90;;;;;;5073204;28;20404;-70
2023/06/24 03:18:40;;;;;;;9.07;7.00;;;17.40;99.90;;;;;;5072662;28;20784;-69
2023/06/24 03:21:06;;;;;;;6.50;5.90;;;17.40;99.90;;;;;;5072856;28;20574;-70
2023/06/24 03:23:31;;;;;;;7.13;6.43;;;17.40;99.90;;;;;;5073183;28;20764;-70
2023/06/24 03:25:57;;;;;;;7.67;6.63;;;17.30;99.90;;;;;;5072665;28;20241;-70
2023/06/24 03:28:22;;;;;;;6.17;5.57;;;17.30;99.90;;;;;;5072553;28;20194;-70
2023/06/24 03:30:48;;;;;;;6.67;5.93;;;17.30;99.90;;;;;;5072560;28;20169;-69
2023/06/24 03:33:16;;;;;;;6.50;5.90;;;17.30;99.90;;;;;;5072463;28;20162;-69
2023/06/24 03:35:42;;;;;;;6.90;6.30;;;17.30;99.90;;;;;;5072530;28;20263;-70
2023/06/24 03:38:08;;;;;;;7.73;6.77;;;17.20;99.90;;;;;;5072675;28;20456;-70
2023/06/24 03:40:33;;;;;;;7.30;6.60;;;17.20;99.90;;;;;;5072528;28;20239;-70
2023/06/24 03:42:59;;;;;;;6.70;6.10;;;17.20;99.90;;;;;;5054123;28;20227;-70
2023/06/24 03:45:24;;;;;;;6.20;5.70;;;17.20;99.90;;;;;;5048927;28;20181;-70
2023/06/24 03:47:50;;;;;;;6.17;5.57;;;17.20;99.90;;;;;;5042726;28;20232;-70
2023/06/24 03:50:16;;;;;;;6.13;5.63;;;17.30;99.90;;;;;;5076255;28;20628;-69
2023/06/24 03:52:41;;;;;;;6.93;6.33;;;17.40;99.90;;;;;;5076576;28;20198;-69
2023/06/24 03:55:07;;;;;;;6.90;6.20;;;17.50;99.90;;;;;;5076782;28;20174;-69
2023/06/24 03:57:33;;;;;;;7.40;5.97;;;17.60;99.90;;;;;;5076691;28;20197;-70
2023/06/24 03:59:58;;;;;;;6.90;6.20;;;17.70;99.90;;;;;;5076396;28;20790;-69
2023/06/24 04:02:24;;;;;;;7.00;6.30;;;17.70;99.90;;;;;;5076349;28;20240;-70
2023/06/24 04:04:51;;;;;;;6.50;5.90;;;17.70;99.90;;;;;;5074516;28;20172;-69
2023/06/24 04:07:26;;;;;;;6.87;6.20;;;17.70;99.90;;;;;;5068965;28;20232;-70
2023/06/24 04:09:54;;;;;;;6.67;6.07;;;17.70;99.90;;;;;;5036688;28;20397;-69
2023/06/24 04:12:20;;;;;;;7.73;7.03;;;17.70;99.90;;;;;;5036534;28;20409;-70
2023/06/24 04:14:46;;;;;;;6.53;5.97;;;17.80;99.90;;;;;;5019184;28;20414;-70
2023/06/24 04:17:11;;;;;;;6.27;5.67;;;17.80;99.90;;;;;;5036294;28;20187;-69
2023/06/24 04:19:37;;;;;;;6.67;5.97;;;17.90;99.90;;;;;;5036566;28;20240;-70
2023/06/24 04:22:03;;;;;;;6.90;6.30;;;18.00;99.90;;;;;;5036185;28;20163;-69
2023/06/24 04:24:28;;;;;;;7.10;6.40;;;18.10;99.90;;;;;;5036561;28;20195;-70
2023/06/24 04:26:54;;;;;;;7.53;6.53;;;18.10;99.90;;;;;;5036238;28;20278;-69
2023/06/24 04:29:20;;;;;;;6.00;5.47;;;18.20;99.90;;;;;;5036246;28;20167;-69
2023/06/24 04:31:46;;;;;;;7.20;6.50;;;18.30;99.90;;;;;;5018259;28;20413;-69
2023/06/24 04:34:11;;;;;;;7.10;6.40;;;18.30;99.90;;;;;;5041316;28;20246;-70
2023/06/24 04:36:38;;;;;;;8.13;6.43;;;18.30;99.90;;;;;;5075580;28;20564;-69
2023/06/24 04:39:04;;;;;;;7.50;6.80;;;18.40;99.90;;;;;;5068955;28;20300;-70
2023/06/24 04:41:32;;;;;;;6.33;5.80;;;18.50;99.90;;;;;;5055788;28;20441;-69
2023/06/24 04:43:57;;;;;;;7.10;6.40;;;18.50;99.90;;;;;;5037987;28;20661;-69
2023/06/24 04:46:23;;;;;;;6.67;6.00;;;18.50;99.90;;;;;;5055873;28;20436;-69
2023/06/24 04:48:49;;;;;;;6.57;5.97;;;18.60;99.90;;;;;;5056151;28;20159;-70
2023/06/24 04:51:14;;;;;;;6.40;5.80;;;18.60;99.90;;;;;;5055378;28;20216;-70
2023/06/24 04:53:40;;;;;;;5.80;5.30;;;18.70;99.90;;;;;;5056270;28;20175;-70
2023/06/24 04:56:06;;;;;;;7.97;6.63;;;18.80;99.90;;;;;;5056187;28;20252;-69
2023/06/24 04:58:32;;;;;;;6.73;6.07;;;18.80;99.90;;;;;;5055784;28;20605;-70
2023/06/24 05:00:58;;;;;;;5.80;5.30;;;18.90;99.90;;;;;;5056427;28;20202;-70
2023/06/24 05:03:24;;;;;;;6.13;5.63;;;18.90;99.90;;;;;;5056350;28;20177;-70
2023/06/24 05:05:49;;;;;;;6.50;5.77;;;19.00;99.90;;;;;;5071775;28;20396;-70
2023/06/24 05:08:15;;;;;;;5.40;4.90;;;19.00;99.90;;;;;;5075486;28;20714;-70
2023/06/24 05:10:40;;;;;;;7.10;6.40;;;19.10;99.90;;;;;;5075719;28;20170;-70
2023/06/24 05:13:06;;;;;;;6.07;5.47;;;19.10;99.90;;;;;;5075724;28;20681;-69
2023/06/24 05:15:31;;;;;;;5.63;5.00;;;19.20;99.90;;;;;;5075524;28;20197;-69
2023/06/24 05:17:57;;;;;;;5.80;5.30;;;19.30;99.90;;;;;;5075313;28;20259;-70
2023/06/24 05:20:22;;;;;;;7.37;6.43;;;19.30;99.90;;;;;;5075088;28;20190;-70
2023/06/24 05:22:48;;;;;;;6.00;5.40;;;19.40;99.90;;;;;;5075361;28;20239;-70
2023/06/24 05:25:14;;;;;;;6.37;5.70;;;19.40;99.90;;;;;;5057908;28;20154;-70
2023/06/24 05:27:39;;;;;;;7.30;5.40;;;19.50;99.90;;;;;;5074928;28;20178;-70
2023/06/24 05:30:06;;;;;;;5.97;5.47;;;19.60;99.90;;;;;;5074986;28;20170;-70
2023/06/24 05:32:31;;;;;;;6.23;5.53;;;19.80;99.90;;;;;;5074971;28;20174;-70
2023/06/24 05:34:57;;;;;;;7.17;6.57;;;19.90;99.90;;;;;;5074386;28;20419;-70
2023/06/24 05:37:22;;;;;;;6.10;5.60;;;20.10;99.90;;;;;;5074345;28;20683;-69
2023/06/24 05:39:48;;;;;;;6.80;6.20;;;20.20;99.90;;;;;;5056348;28;20191;-70
2023/06/24 05:42:14;;;;;;;5.60;5.20;;;20.20;99.90;;;;;;5074451;28;20162;-69
2023/06/24 05:44:39;;;;;;;6.47;5.97;;;20.30;99.90;;;;;;5074444;28;20166;-70
2023/06/24 05:47:05;;;;;;;6.60;6.00;;;20.40;99.90;;;;;;5074870;28;20563;-70
2023/06/24 05:49:30;;;;;;;6.50;5.90;;;20.50;99.90;;;;;;5068357;28;20673;-69
2023/06/24 05:51:57;;;;;;;7.50;6.30;;;20.70;99.90;;;;;;5054484;28;20246;-69
2023/06/24 05:54:23;;;;;;;6.37;5.77;;;20.80;99.90;;;;;;5054270;28;20159;-70
2023/06/24 05:56:48;;;;;;;8.20;5.60;;;20.90;99.90;;;;;;5054224;28;20447;-70
2023/06/24 05:59:14;;;;;;;6.57;5.83;;;20.90;99.90;;;;;;5050917;28;20585;-70
2023/06/24 06:01:39;;;;;;;5.87;5.30;;;20.90;99.90;;;;;;5054221;28;20225;-70
2023/06/24 06:04:05;;;;;;;6.00;5.00;;;21.00;99.90;;;;;;5054187;28;20169;-70
2023/06/24 06:06:31;;;;;;;5.17;4.67;;;21.00;99.90;;;;;;5035951;28;20173;-70
2023/06/24 06:08:57;;;;;;;5.30;4.80;;;21.30;99.90;;;;;;5053227;28;20190;-70
2023/06/24 06:11:23;;;;;;;5.67;4.33;;;21.40;99.90;;;;;;5054290;28;20550;-70
2023/06/24 06:13:48;;;;;;;5.33;4.93;;;21.50;99.90;;;;;;5054169;28;20408;-69
2023/06/24 06:16:14;;;;;;;5.73;5.13;;;21.60;99.90;;;;;;5053584;28;20167;-69
2023/06/24 06:18:39;;;;;;;6.57;5.57;;;21.70;99.90;;;;;;5062257;28;20190;-69
2023/06/24 06:21:05;;;;;;;5.30;4.80;;;21.80;99.90;;;;;;5073535;28;20248;-68
2023/06/24 06:23:31;;;;;;;5.83;5.23;;;21.90;99.90;;;;;;5073540;28;20166;-69
2023/06/24 06:25:56;;;;;;;4.93;4.43;;;22.00;99.90;;;;;;5059756;28;20167;-68
2023/06/24 06:28:22;;;;;;;4.93;4.43;;;22.00;99.90;;;;;;5033512;28;20187;-69
2023/06/24 06:30:48;;;;;;;6.13;5.13;;;22.10;99.90;;;;;;5033540;28;20167;-69
2023/06/24 06:33:13;;;;;;;5.40;4.90;;;21.80;99.90;;;;;;5033498;28;20164;-69
2023/06/24 06:35:39;;;;;;;5.83;5.10;;;21.80;99.90;;;;;;5033439;28;20225;-69
2023/06/24 06:38:05;;;;;;;5.10;4.50;;;21.90;99.90;;;;;;5033409;28;20237;-69
2023/06/24 06:40:31;;;;;;;6.30;5.20;;;21.60;99.90;;;;;;5034163;28;20546;-69
2023/06/24 06:42:56;;;;;;;5.10;4.30;;;21.60;99.90;;;;;;5033665;28;20399;-69
2023/06/24 06:45:22;;;;;;;5.53;4.60;;;21.60;99.90;;;;;;5033410;28;20266;-69
2023/06/24 06:47:48;;;;;;;5.80;4.53;;;21.80;99.90;;;;;;5035208;28;20246;-68
2023/06/24 06:50:14;;;;;;;4.93;4.50;;;21.90;99.90;;;;;;5072888;28;20177;-69
2023/06/24 06:52:39;;;;;;;4.90;4.30;;;22.10;99.90;;;;;;5073628;28;20400;-69
2023/06/24 06:55:05;;;;;;;5.37;4.43;;;22.20;99.90;;;;;;5073441;28;20204;-69
2023/06/24 06:57:31;;;;;;;4.30;3.90;;;22.40;99.90;;;;;;5073396;28;20197;-69
2023/06/24 06:59:57;;;;;;;5.07;4.53;;;22.50;99.90;;;;;;5055434;28;20197;-69
2023/06/24 07:02:22;;;;;;;5.70;4.60;;;22.60;99.90;;;;;;5073539;28;20400;-69
2023/06/24 07:04:50;;;;;;;4.63;4.20;;;22.70;99.90;;;;;;5072719;28;20182;-69
2023/06/24 07:07:16;;;;;;;5.10;4.60;;;22.80;99.90;;;;;;5072689;28;20265;-70
2023/06/24 07:09:41;;;;;;;5.10;4.70;;;22.90;99.90;;;;;;5072969;28;20436;-69
2023/06/24 07:12:07;;;;;;;5.13;4.70;;;23.00;99.90;;;;;;5072678;28;20539;-69
2023/06/24 07:14:33;;;;;;;5.10;4.60;;;22.90;99.90;;;;;;5072657;28;20186;-69
2023/06/24 07:16:58;;;;;;;4.73;4.30;;;22.80;99.90;;;;;;5072549;28;20491;-70
2023/06/24 07:19:24;;;;;;;5.00;4.60;;;23.10;99.90;;;;;;5071422;28;20762;-69
2023/06/24 07:21:50;;;;;;;4.80;4.40;;;23.00;99.90;;;;;;5072941;28;20190;-69
2023/06/24 07:24:16;;;;;;;4.30;3.83;;;22.90;99.90;;;;;;5072610;28;20542;-69
2023/06/24 07:26:42;;;;;;;4.97;4.40;;;22.80;99.90;;;;;;5072551;28;20412;-69
2023/06/24 07:29:08;;;;;;;4.13;3.73;;;22.80;99.90;;;;;;5073043;28;20685;-70
2023/06/24 07:31:34;;;;;;;5.10;4.60;;;22.70;99.90;;;;;;5073347;28;20170;-69
2023/06/24 07:34:00;;;;;;;4.30;3.90;;;22.90;99.90;;;;;;5072979;28;20894;-69
2023/06/24 07:36:26;;;;;;;5.03;4.50;;;23.20;99.90;;;;;;5073171;28;20411;-69
2023/06/24 07:38:51;;;;;;;4.13;3.80;;;23.30;99.90;;;;;;5055482;28;20181;-69
2023/06/24 07:41:17;;;;;;;4.80;4.47;;;23.20;99.70;;;;;;5072928;28;20206;-69
2023/06/24 07:43:42;;;;;;;4.70;4.20;;;23.10;99.60;;;;;;5054770;28;20223;-69
2023/06/24 07:46:08;;;;;;;4.27;3.87;;;23.00;99.70;;;;;;5073069;28;20169;-69
2023/06/24 07:48:34;;;;;;;5.40;4.90;;;23.40;99.80;;;;;;5072351;28;20881;-69
2023/06/24 07:50:59;;;;;;;4.50;3.93;;;23.60;99.10;;;;;;5056279;28;20566;-69
2023/06/24 07:53:25;;;;;;;5.07;4.53;;;23.60;98.80;;;;;;5041264;28;20254;-69
2023/06/24 07:55:51;;;;;;;4.63;3.93;;;23.50;98.10;;;;;;5052902;28;20166;-69
2023/06/24 07:58:16;;;;;;;4.47;4.07;;;23.40;98.60;;;;;;5053060;28;20659;-69
2023/06/24 08:00:42;;;;;;;5.70;4.20;;;23.50;98.30;;;;;;5046381;28;20203;-69
2023/06/24 08:03:08;;;;;;;4.83;4.43;;;23.40;98.60;;;;;;5041417;28;20160;-68
2023/06/24 08:05:33;;;;;;;4.00;3.60;;;23.40;98.40;;;;;;5041290;28;20464;-69
2023/06/24 08:07:59;;;;;;;4.60;4.20;;;23.50;98.20;;;;;;5040917;28;20572;-69
2023/06/24 08:10:25;;;;;;;5.97;4.10;;;23.50;98.10;;;;;;5043640;28;20182;-69
2023/06/24 08:12:50;;;;;;;4.87;4.47;;;23.70;97.90;;;;;;5042019;28;20179;-69
2023/06/24 08:15:16;;;;;;;4.40;4.00;;;23.70;97.90;;;;;;5038352;28;20661;-69
2023/06/24 08:17:42;;;;;;;4.33;3.97;;;23.80;98.00;;;;;;5033309;28;20192;-69
2023/06/24 08:20:08;;;;;;;4.50;4.10;;;23.80;97.90;;;;;;5073313;28;20198;-69
2023/06/24 08:22:33;;;;;;;4.00;3.70;;;24.00;98.20;;;;;;5074208;28;20170;-69
2023/06/24 08:24:59;;;;;;;4.10;3.70;;;24.10;97.60;;;;;;5073078;28;20443;-70
2023/06/24 08:27:24;;;;;;;4.17;3.80;;;24.20;97.70;;;;;;5055104;28;20191;-68
2023/06/24 08:30:10;;;;;;;4.27;3.90;;;24.20;97.10;;;;;;5034003;28;20172;-68
2023/06/24 08:33:13;;;;;;;5.07;4.23;;;24.50;97.10;;;;;;5036049;28;20163;-68
2023/06/24 08:35:39;;;;;;;4.20;3.80;;;24.60;96.90;;;;;;5055111;28;20495;-68
2023/06/24 08:38:04;;;;;;;4.33;4.00;;;24.70;96.60;;;;;;5055642;28;20455;-68
2023/06/24 08:40:31;;;;;;;4.47;4.07;;;24.80;95.90;;;;;;5055808;28;20575;-68
2023/06/24 08:42:58;;;;;;;5.23;4.10;;;24.60;95.80;;;;;;5055862;28;20705;-68
2023/06/24 08:45:23;;;;;;;4.90;4.40;;;24.50;96.00;;;;;;5055461;28;20915;-70
2023/06/24 08:47:50;;;;;;;4.43;4.10;;;24.40;96.40;;;;;;5055494;28;20455;-69
2023/06/24 08:50:17;;;;;;;4.80;4.40;;;24.40;96.20;;;;;;5075231;28;20722;-69
2023/06/24 08:52:48;;;;;;;4.60;4.13;;;24.60;96.00;;;;;;5075267;28;20416;-70
2023/06/24 08:55:16;;;;;;;5.53;4.33;;;24.90;95.70;;;;;;5075721;28;20789;-70
2023/06/24 08:57:42;;;;;;;4.60;3.83;;;25.00;95.60;;;;;;5075464;28;20943;-70
2023/06/24 09:00:11;;;;;;;3.80;3.50;;;25.10;94.00;;;;;;5075464;28;20448;-71
2023/06/24 09:02:38;;;;;;;4.27;3.47;;;24.90;91.90;;;;;;5075871;28;20181;-69
2023/06/24 09:05:07;;;;;;;5.50;4.37;;;24.80;92.60;;;;;;5075112;28;20438;-70
2023/06/24 09:07:33;;;;;;;4.27;3.97;;;24.70;92.40;;;;;;5075440;28;20435;-70
2023/06/24 09:10:00;;;;;;;5.10;3.60;;;24.70;92.60;;;;;;5075182;28;20404;-70
2023/06/24 09:12:26;;;;;;;4.93;4.10;;;24.90;92.60;;;;;;5075702;28;20169;-71
2023/06/24 09:14:52;;;;;;;4.40;4.00;;;25.10;92.50;;;;;;5075395;28;20488;-70
2023/06/24 09:17:21;;;;;;;5.40;4.07;;;25.20;92.60;;;;;;5074855;28;20503;-69
2023/06/24 09:19:48;;;;;;;3.70;3.40;;;25.50;92.00;;;;;;5074483;28;20431;-70
2023/06/24 09:22:18;;;;;;;3.97;3.63;;;25.40;90.70;;;;;;5074652;28;20526;-69
2023/06/24 09:24:48;;;;;;;4.10;3.80;;;25.40;90.30;;;;;;5074967;28;20873;-69
2023/06/24 09:27:16;;;;;;;3.83;3.50;;;25.10;90.60;;;;;;5074887;28;20431;-69
2023/06/24 09:29:43;;;;;;;4.00;3.60;;;25.00;90.60;;;;;;5074590;28;20408;-69
2023/06/24 09:32:09;;;;;;;4.57;4.10;;;25.10;90.10;;;;;;5054672;28;20417;-69
2023/06/24 09:34:35;;;;;;;4.90;4.00;;;25.00;90.10;;;;;;5034455;28;20865;-69
2023/06/24 09:37:00;;;;;;;4.17;3.80;;;25.20;89.50;;;;;;5034782;28;20522;-68
2023/06/24 09:39:30;;;;;;;5.53;4.03;;;25.40;87.20;;;;;;5034811;28;20409;-69
2023/06/24 09:42:00;;;;;;;5.30;3.20;;;25.60;85.30;;;;;;5034574;28;20641;-69
2023/06/24 09:44:27;;;;;;;4.03;3.63;;;25.50;87.10;;;;;;5033976;28;20414;-69
2023/06/24 09:46:53;;;;;;;5.20;4.40;;;25.60;86.60;;;;;;5034454;28;20477;-69
2023/06/24 09:49:19;;;;;;;5.00;3.80;;;25.90;86.60;;;;;;5058696;28;20448;-69
2023/06/24 09:51:46;;;;;;;4.23;3.53;;;26.10;86.40;;;;;;5074226;28;20205;-69
2023/06/24 09:54:14;;;;;;;3.60;3.30;;;26.00;83.00;;;;;;5074257;28;20408;-69
2023/06/24 09:56:44;;;;;;;3.37;3.07;;;26.10;80.60;;;;;;5050623;28;20434;-69
2023/06/24 09:59:12;;;;;;;3.80;3.40;;;25.90;79.60;;;;;;5034439;28;20417;-69
2023/06/24 10:01:40;;;;;;;5.10;4.03;;;26.10;78.50;;;;;;5016249;28;20454;-69
2023/06/24 10:04:09;;;;;;;3.93;3.60;;;25.90;79.60;;;;;;5046853;28;20453;-69
2023/06/24 10:06:34;;;;;;;3.83;3.40;;;25.80;84.00;;;;;;5072272;28;20895;-69
2023/06/24 10:09:04;;;;;;;3.60;3.30;;;25.90;81.70;;;;;;5074008;28;20412;-69
2023/06/24 10:11:30;;;;;;;3.47;3.17;;;25.80;82.20;;;;;;5073820;28;20246;-69
2023/06/24 10:13:56;;;;;;;4.03;3.73;;;26.00;80.90;;;;;;5074273;28;20404;-69
2023/06/24 10:16:22;;;;;;;5.13;4.60;;;26.20;82.40;;;;;;5073957;28;20491;-69
2023/06/24 10:18:48;;;;;;;3.90;3.60;;;26.40;80.40;;;;;;5073826;28;20408;-69
2023/06/24 10:21:16;;;;;;;4.00;3.60;;;26.20;81.00;;;;;;5073599;28;20535;-69
2023/06/24 10:23:43;;;;;;;5.90;3.27;;;26.20;82.10;;;;;;5073647;28;20898;-69
2023/06/24 10:26:10;;;;;;;5.47;3.10;;;26.10;81.00;;;;;;5063857;28;20805;-69
2023/06/24 10:29:07;;;;;;;4.40;4.00;;;25.70;80.00;;;;;;5053823;28;20832;-69
2023/06/24 10:31:44;;;;;;;3.87;3.40;;;25.90;80.50;;;;;;5054847;28;20443;-69
2023/06/24 10:34:19;;;;;;;4.43;4.03;;;26.00;80.00;;;;;;5053393;28;20495;-69
2023/06/24 10:36:54;;;;;;;3.70;3.30;;;26.00;80.70;;;;;;5033436;28;20460;-69
2023/06/24 10:39:43;;;;;;;4.37;3.80;;;25.80;78.90;;;;;;5033946;28;20397;-69
2023/06/24 10:42:26;;;;;;;4.70;3.70;;;25.80;80.00;;;;;;5019884;28;20454;-69
2023/06/24 10:44:54;;;;;;;4.03;3.67;;;26.10;79.10;;;;;;5033539;28;20872;-69
2023/06/24 10:47:21;;;;;;;4.50;4.00;;;26.30;78.50;;;;;;5033226;28;20804;-69
2023/06/24 10:49:47;;;;;;;3.20;2.97;;;26.80;79.40;;;;;;5065056;28;20443;-69
2023/06/24 10:52:13;;;;;;;3.20;3.00;;;27.00;75.10;;;;;;5073508;28;20495;-69
2023/06/24 10:54:40;;;;;;;3.07;2.77;;;27.50;71.80;;;;;;5073191;28;20649;-69
2023/06/24 10:57:07;;;;;;;2.97;2.60;;;27.70;67.40;;;;;;5073262;28;20440;-70
2023/06/24 10:59:39;;;;;;;6.43;3.17;;;27.60;66.80;;;;;;5074031;28;20946;-69
2023/06/24 11:02:05;;;;;;;3.80;3.37;;;27.30;68.00;;;;;;5073260;28;20443;-70
2023/06/24 11:04:30;;;;;;;4.47;3.23;;;27.40;69.60;;;;;;5073918;28;20439;-70
2023/06/24 11:06:59;;;;;;;3.40;3.10;;;27.30;70.40;;;;;;5073280;28;20255;-70
2023/06/24 11:09:25;;;;;;;3.73;3.43;;;27.10;70.40;;;;;;5073054;28;20598;-69
2023/06/24 11:11:50;;;;;;;4.27;3.87;;;27.00;70.40;;;;;;5073251;28;20415;-70
2023/06/24 11:14:16;;;;;;;4.47;3.90;;;26.90;71.10;;;;;;5073471;28;20233;-69
2023/06/24 11:16:43;;;;;;;3.50;3.20;;;26.80;73.40;;;;;;5073721;28;20668;-70
2023/06/24 11:19:08;;;;;;;3.37;3.07;;;26.90;70.90;;;;;;5062609;28;20244;-70
2023/06/24 11:21:34;;;;;;;3.63;3.33;;;26.90;71.00;;;;;;5072718;28;20464;-70
2023/06/24 11:24:03;;;;;;;3.63;3.33;;;27.20;69.20;;;;;;5073803;28;20174;-69
2023/06/24 11:26:29;;;;;;;4.03;3.50;;;27.40;69.70;;;;;;5073020;28;20201;-70
2023/06/24 11:28:55;;;;;;;4.80;3.80;;;27.80;68.70;;;;;;5073075;28;20918;-70
2023/06/24 11:31:27;;;;;;;3.40;3.10;;;28.10;68.00;;;;;;5073561;28;20411;-71
2023/06/24 11:33:52;;;;;;;3.57;3.27;;;28.40;65.20;;;;;;5073633;28;20181;-70
2023/06/24 11:36:22;;;;;;;3.43;3.13;;;29.00;63.20;;;;;;5073683;28;20870;-70
2023/06/24 11:38:48;;;;;;;3.53;3.10;;;31.10;59.30;;;;;;5074408;28;20543;-70
2023/06/24 11:41:14;;;;;;;6.40;2.87;;;33.40;57.10;;;;;;5074832;28;20458;-70
2023/06/24 11:43:47;;;;;;;4.00;3.70;;;33.90;53.40;;;;;;5055909;28;20416;-70
2023/06/24 11:46:33;;;;;;;3.27;2.97;;;33.10;52.10;;;;;;5044354;28;20826;-70
2023/06/24 11:49:06;;;;;;;3.57;3.27;;;33.20;51.90;;;;;;5028478;28;20457;-70
2023/06/24 11:51:32;;;;;;;2.90;2.70;;;33.00;51.70;;;;;;5041804;28;20485;-70
2023/06/24 11:54:05;;;;;;;3.63;3.33;;;33.80;50.20;;;;;;5044720;28;20848;-70
2023/06/24 11:56:38;;;;;;;3.57;3.27;;;32.80;50.40;;;;;;5044198;28;20210;-70
2023/06/24 11:59:17;;;;;;;3.93;3.53;;;31.00;52.50;;;;;;5052257;28;20405;-69
2023/06/24 12:01:43;;;;;;;3.67;3.37;;;30.20;55.10;;;;;;5041509;28;20782;-70
2023/06/24 12:04:13;;;;;;;3.20;2.93;;;30.10;55.30;;;;;;5040876;28;20410;-69
2023/06/24 12:06:42;;;;;;;3.70;3.17;;;32.40;52.60;;;;;;5043711;28;20206;-70
2023/06/24 12:09:11;;;;;;;2.87;2.67;;;33.00;50.80;;;;;;5047025;28;20397;-70
2023/06/24 12:11:37;;;;;;;3.00;2.80;;;33.40;50.50;;;;;;5046025;28;20417;-69
2023/06/24 12:14:03;;;;;;;5.33;4.93;;;34.40;49.10;;;;;;5045055;28;20411;-70
2023/06/24 12:16:29;;;;;;;3.63;3.33;;;35.30;47.00;;;;;;5049053;28;20409;-69
2023/06/24 12:18:55;;;;;;;3.70;3.40;;;36.00;46.20;;;;;;5059053;28;20411;-70
2023/06/24 12:21:21;;;;;;;3.13;2.83;;;37.00;44.40;;;;;;5076362;28;20448;-70
2023/06/24 12:23:46;;;;;;;3.30;3.00;;;36.60;43.30;;;;;;5065590;28;20177;-69
2023/06/24 12:26:12;;;;;;;3.70;3.40;;;37.00;42.60;;;;;;5055925;28;20170;-69
2023/06/24 12:28:38;;;;;;;2.90;2.70;;;38.10;40.80;;;;;;5055732;28;20715;-69
2023/06/24 12:31:04;;;;;;;3.80;3.50;;;36.50;41.30;;;;;;5055746;28;20249;-69
2023/06/24 12:33:30;;;;;;;3.20;2.97;;;34.70;44.00;;;;;;5055945;28;20645;-69
2023/06/24 12:35:55;;;;;;;4.00;3.70;;;35.80;43.90;;;;;;5055792;28;20424;-70
2023/06/24 12:38:21;;;;;;;5.33;3.20;;;36.00;42.70;;;;;;5055869;28;20421;-69
2023/06/24 12:40:47;;;;;;;3.27;3.07;;;36.60;42.40;;;;;;5055732;28;20203;-70
2023/06/24 12:43:14;;;;;;;3.97;3.57;;;36.90;41.40;;;;;;5055724;28;20162;-70
2023/06/24 12:45:43;;;;;;;3.30;3.00;;;37.30;42.70;;;;;;5055696;28;20492;-70
2023/06/24 12:48:09;;;;;;;3.70;3.40;;;37.60;41.10;;;;;;5055952;28;20767;-69
2023/06/24 12:50:35;;;;;;;4.00;3.60;;;37.40;41.60;;;;;;5075061;28;20894;-69